Hyde Park, New York
Current Conditions -  °F | °C
As of 5:09 AM on Wednesday 22 Oct 2014 (Local Time) from KPOU Reporting Station
Overcast Overcast  
Wind Chill: 52°   Ceiling: 1700
Heat Index: 52°   Visibility: 10mi
Dew Point: 49°   Wind: 10mph
Humidity: 89%   Direction: 360°N
Pressure: 29.94"   Gusts: NA
Location:  41.79°N, 73.93°W
Report Text: KPOU 220909Z AUTO 36009KT 10SM FEW008 OVC017 11/09 A2994 RMK AO2 T01110094 TSNO
Loading
Personal Weather Stations






























Interactive Weather Map
Tropical Storm Tracking
New forecast layout! Learn more

10-Day Weather Forecast

Advertisements
Track Severe Weather on mobile